Time;durP1;ratioP1;P1;durP2;ratioP2;P2;SDS_P1;SDS_P2;PMS_P1;PMS_P2;Temp;Humidity;BMP_temperature;BMP_pressure;BME280_temperature;BME280_humidity;BME280_pressure;Samples;Min_cycle;Max_cycle;Signal;HPM_P1;HPM_P2
2022/11/11 00:00:21;;;;;;;8.48;6.35;;;;;;;-0.29;100.00;94289.47;2131891;27;20031;-73
2022/11/11 00:01:22;;;;;;;10.38;5.78;;;;;;;-0.19;100.00;94294.34;2131792;27;20023;-73
2022/11/11 00:02:23;;;;;;;8.10;5.97;;;;;;;-0.23;100.00;94290.81;2131094;27;20034;-74
2022/11/11 00:03:24;;;;;;;15.77;6.50;;;;;;;-0.16;100.00;94295.56;2131466;27;20031;-73
2022/11/11 00:04:25;;;;;;;12.35;6.50;;;;;;;-0.23;100.00;94288.19;2127589;27;20467;-73
2022/11/11 00:05:27;;;;;;;8.63;5.65;;;;;;;-0.17;100.00;94289.56;2131781;27;20074;-73
2022/11/11 00:06:28;;;;;;;9.18;6.22;;;;;;;-0.14;100.00;94296.00;2131432;27;20114;-74
2022/11/11 00:07:29;;;;;;;7.50;6.20;;;;;;;-0.11;100.00;94298.78;2131559;27;20027;-74
2022/11/11 00:08:31;;;;;;;7.90;5.80;;;;;;;-0.17;100.00;94294.81;2130853;27;20030;-74
2022/11/11 00:09:32;;;;;;;7.45;5.40;;;;;;;-0.16;100.00;94300.81;2131748;27;20083;-73
2022/11/11 00:10:34;;;;;;;8.77;5.88;;;;;;;-0.13;100.00;94285.19;2131675;27;20027;-73
2022/11/11 00:11:36;;;;;;;8.88;6.25;;;;;;;-0.15;100.00;94294.47;2131630;27;20018;-74
2022/11/11 00:12:37;;;;;;;6.85;5.90;;;;;;;-0.12;100.00;94289.34;2131721;27;20034;-73
2022/11/11 00:13:39;;;;;;;7.15;5.90;;;;;;;-0.13;100.00;94293.09;2131096;27;20449;-73
2022/11/11 00:14:40;;;;;;;6.80;6.07;;;;;;;-0.20;100.00;94281.53;2131559;27;20369;-73
2022/11/11 00:15:41;;;;;;;8.23;6.55;;;;;;;-0.20;100.00;94284.91;2131807;27;20026;-73
2022/11/11 00:25:06;;;;;;;6.85;5.72;;;;;;;-0.19;100.00;94283.06;2122855;27;20027;-73
2022/11/11 00:26:09;;;;;;;6.63;5.90;;;;;;;-0.24;100.00;94293.75;2122918;27;20046;-72
2022/11/11 00:27:11;;;;;;;8.00;5.90;;;;;;;-0.23;100.00;94288.19;2123063;27;20114;-72
2022/11/11 00:28:16;;;;;;;6.57;5.75;;;;;;;-0.25;100.00;94285.13;2123158;27;20474;-72
2022/11/11 00:29:17;;;;;;;9.70;6.20;;;;;;;-0.27;100.00;94298.53;2122311;27;20365;-71
2022/11/11 00:30:18;;;;;;;8.52;6.60;;;;;;;-0.29;100.00;94295.47;2123060;27;20019;-72
2022/11/11 00:31:19;;;;;;;6.85;5.28;;;;;;;-0.30;100.00;94293.94;2123117;27;20031;-72
2022/11/11 00:32:23;;;;;;;9.68;5.68;;;;;;;-0.38;100.00;94292.13;2123067;27;20031;-72
2022/11/11 00:33:24;;;;;;;7.97;6.13;;;;;;;-0.34;100.00;94300.91;2123015;27;20031;-72
2022/11/11 00:34:25;;;;;;;7.25;5.82;;;;;;;-0.37;100.00;94298.16;2121314;27;20027;-72
2022/11/11 00:36:45;;;;;;;5.75;5.10;;;;;;;-0.35;100.00;94302.00;2122579;27;20106;-72
2022/11/11 00:37:49;;;;;;;10.18;6.13;;;;;;;-0.35;100.00;94295.97;2122974;27;20038;-72
2022/11/11 00:38:54;;;;;;;7.55;5.70;;;;;;;-0.36;100.00;94304.94;2122205;27;20027;-72
2022/11/11 00:39:55;;;;;;;8.90;5.97;;;;;;;-0.41;100.00;94300.63;2118082;27;20058;-72
2022/11/11 00:40:56;;;;;;;7.25;5.50;;;;;;;-0.45;100.00;94304.97;2122230;27;20038;-72
2022/11/11 00:41:57;;;;;;;8.63;5.85;;;;;;;-0.45;100.00;94306.84;2122336;27;20119;-72
2022/11/11 00:42:58;;;;;;;8.70;6.40;;;;;;;-0.53;100.00;94306.59;2122310;27;20110;-72
2022/11/11 00:43:59;;;;;;;8.32;5.75;;;;;;;-0.53;100.00;94306.59;2122562;27;20031;-72
2022/11/11 00:45:00;;;;;;;10.45;5.70;;;;;;;-0.53;100.00;94300.53;2122802;27;20030;-72
2022/11/11 00:52:03;;;;;;;10.60;5.63;;;;;;;-0.52;100.00;94296.84;2063503;28;20085;-72
2022/11/11 00:53:09;;;;;;;9.60;6.05;;;;;;;-0.59;100.00;94293.94;2074240;28;20040;-72
2022/11/11 00:54:11;;;;;;;10.73;6.03;;;;;;;-0.56;100.00;94301.94;2099772;28;20094;-73
2022/11/11 00:55:13;;;;;;;8.48;5.53;;;;;;;-0.48;100.00;94294.34;2120545;27;20480;-72
2022/11/11 00:56:14;;;;;;;7.40;5.90;;;;;;;-0.46;100.00;94295.56;2121751;27;20042;-73
2022/11/11 00:57:15;;;;;;;9.82;6.03;;;;;;;-0.49;100.00;94304.06;2121910;27;20499;-73
2022/11/11 00:58:16;;;;;;;8.73;6.10;;;;;;;-0.45;100.00;94301.59;2123094;27;20079;-72
2022/11/11 00:59:17;;;;;;;9.85;6.22;;;;;;;-0.45;100.00;94301.59;2122630;27;20361;-72
2022/11/11 01:00:19;;;;;;;8.40;5.30;;;;;;;-0.45;100.00;94304.22;2122105;27;20453;-72
2022/11/11 01:01:20;;;;;;;10.80;5.95;;;;;;;-0.48;100.00;94297.75;2122919;27;20372;-73
2022/11/11 01:02:21;;;;;;;7.40;5.07;;;;;;;-0.47;100.00;94307.16;2122833;27;20027;-72
2022/11/11 01:03:22;;;;;;;7.90;6.03;;;;;;;-0.48;100.00;94305.63;2123248;27;20026;-74
2022/11/11 01:04:23;;;;;;;7.38;5.35;;;;;;;-0.49;100.00;94303.31;2122600;27;20168;-73
2022/11/11 01:05:24;;;;;;;9.65;5.60;;;;;;;-0.55;100.00;94302.72;2121736;27;20023;-74
2022/11/11 01:06:26;;;;;;;7.85;5.75;;;;;;;-0.54;100.00;94299.75;2118688;27;20027;-74
2022/11/11 01:07:27;;;;;;;6.53;5.68;;;;;;;-0.52;100.00;94299.47;2121843;27;20102;-73
2022/11/11 01:08:28;;;;;;;7.10;5.13;;;;;;;-0.48;100.00;94302.22;2122059;27;20023;-72
2022/11/11 01:09:29;;;;;;;6.60;5.25;;;;;;;-0.49;100.00;94304.06;2121866;27;20026;-73
2022/11/11 01:10:42;;;;;;;7.35;5.40;;;;;;;-0.49;100.00;94300.69;2121379;27;20030;-73
2022/11/11 01:11:43;;;;;;;9.23;5.50;;;;;;;-0.53;100.00;94305.78;2121078;27;20413;-73
2022/11/11 01:12:44;;;;;;;7.03;5.07;;;;;;;-0.48;100.00;94302.22;2122603;27;20042;-73
2022/11/11 01:13:45;;;;;;;9.63;5.80;;;;;;;-0.56;100.00;94303.81;2122816;27;20437;-72
2022/11/11 01:14:46;;;;;;;6.18;5.57;;;;;;;-0.63;100.00;94304.28;2121792;27;20110;-73
2022/11/11 01:15:52;;;;;;;6.88;5.63;;;;;;;-0.56;100.00;94307.19;2121286;27;20029;-72
2022/11/11 01:16:53;;;;;;;10.13;5.55;;;;;;;-0.59;100.00;94302.56;2122371;27;20482;-73
2022/11/11 01:17:54;;;;;;;5.07;4.57;;;;;;;-0.63;100.00;94303.53;2126913;27;20046;-74
2022/11/11 01:18:55;;;;;;;6.53;5.57;;;;;;;-0.63;100.00;94306.91;2121972;27;20047;-74
2022/11/11 01:19:56;;;;;;;8.43;5.03;;;;;;;-0.60;100.00;94301.03;2121762;27;20030;-73
2022/11/11 01:21:03;;;;;;;5.60;4.40;;;;;;;-0.55;100.00;94313.22;2130494;27;20517;-74
2022/11/11 01:22:04;;;;;;;6.47;4.85;;;;;;;-0.51;100.00;94314.91;2131070;27;20033;-73
2022/11/11 01:23:06;;;;;;;7.28;4.90;;;;;;;-0.51;100.00;94320.16;2130944;27;20033;-73
2022/11/11 01:24:07;;;;;;;8.48;4.85;;;;;;;-0.52;100.00;94316.00;2131029;27;20033;-73
2022/11/11 01:25:08;;;;;;;5.97;5.00;;;;;;;-0.57;100.00;94320.63;2131063;27;20022;-74
2022/11/11 01:26:17;;;;;;;9.35;5.40;;;;;;;-0.57;100.00;94318.78;2129999;27;20057;-73
2022/11/11 01:27:18;;;;;;;5.90;4.95;;;;;;;-0.73;100.00;94322.25;2130989;27;20034;-73
2022/11/11 01:28:19;;;;;;;6.78;4.63;;;;;;;-0.65;100.00;94316.19;2130989;27;20031;-73
2022/11/11 01:29:23;;;;;;;9.20;4.70;;;;;;;-0.60;100.00;94314.16;2130975;27;20556;-73
2022/11/11 01:30:24;;;;;;;7.25;4.90;;;;;;;-0.64;100.00;94321.13;2126942;27;20015;-73
2022/11/11 01:31:26;;;;;;;8.30;4.88;;;;;;;-0.64;100.00;94321.13;2130571;27;20309;-73
2022/11/11 01:32:26;;;;;;;6.30;5.20;;;;;;;-0.71;100.00;94315.59;2121916;27;20031;-74
2022/11/11 01:33:27;;;;;;;5.75;4.93;;;;;;;-0.68;100.00;94317.59;2121722;27;20030;-73
2022/11/11 01:34:28;;;;;;;10.18;4.85;;;;;;;-0.70;100.00;94317.16;2130940;27;20031;-73
2022/11/11 01:35:30;;;;;;;8.13;4.50;;;;;;;-0.64;100.00;94308.00;2121788;27;20027;-74
2022/11/11 01:36:31;;;;;;;8.40;4.55;;;;;;;-0.63;100.00;94308.78;2120896;27;20023;-73
2022/11/11 01:37:33;;;;;;;9.10;4.75;;;;;;;-0.61;100.00;94310.00;2130892;27;20114;-74
2022/11/11 01:38:35;;;;;;;6.80;5.07;;;;;;;-0.67;100.00;94318.34;2130893;27;20405;-74
2022/11/11 01:39:36;;;;;;;6.70;4.68;;;;;;;-0.65;100.00;94309.09;2130738;27;20046;-74
2022/11/11 01:40:44;;;;;;;9.35;4.80;;;;;;;-0.73;100.00;94317.78;2131111;27;20105;-73
2022/11/11 01:41:45;;;;;;;6.25;4.57;;;;;;;-0.70;100.00;94326.84;2130881;27;20031;-73
2022/11/11 01:42:51;;;;;;;6.35;4.55;;;;;;;-0.67;100.00;94321.75;2131346;27;20405;-73
2022/11/11 01:43:52;;;;;;;9.32;4.75;;;;;;;-0.65;100.00;94319.59;2122558;27;20102;-73
2022/11/11 01:44:53;;;;;;;8.45;4.90;;;;;;;-0.68;100.00;94325.47;2105785;28;20032;-74
2022/11/11 01:45:58;;;;;;;8.57;4.70;;;;;;;-0.69;100.00;94325.78;2105099;27;20055;-73
2022/11/11 01:47:03;;;;;;;7.25;4.40;;;;;;;-0.69;100.00;94331.03;2128572;27;20110;-73
2022/11/11 01:50:00;;;;;;;6.18;4.13;;;;;;;-0.69;100.00;94328.41;2130831;27;20042;-73
2022/11/11 01:51:04;;;;;;;10.60;4.13;;;;;;;-0.61;100.00;94319.75;2095814;28;20036;-74
2022/11/11 01:52:15;;;;;;;10.48;4.93;;;;;;;-0.62;100.00;94324.19;2095654;28;20050;-72
2022/11/11 01:53:16;;;;;;;8.40;4.43;;;;;;;-0.63;100.00;94322.66;2107988;27;20066;-72
2022/11/11 01:54:29;;;;;;;6.03;3.90;;;;;;;-0.64;100.00;94330.88;2130866;27;20041;-73
2022/11/11 01:55:31;;;;;;;8.48;4.15;;;;;;;-0.70;100.00;94332.91;2113910;27;20271;-73
2022/11/11 01:56:32;;;;;;;7.07;4.15;;;;;;;-0.68;100.00;94329.94;2121384;27;20397;-73
2022/11/11 01:57:39;;;;;;;10.93;4.30;;;;;;;-0.69;100.00;94331.81;2130128;27;20106;-73
2022/11/11 01:58:40;;;;;;;6.68;4.30;;;;;;;-0.69;100.00;94339.69;2130917;27;20042;-73
2022/11/11 01:59:45;;;;;;;7.75;3.65;;;;;;;-0.63;100.00;94332.41;2130482;27;20032;-73
2022/11/11 02:00:46;;;;;;;10.05;3.95;;;;;;;-0.68;100.00;94335.97;2130862;27;20043;-73
2022/11/11 02:01:47;;;;;;;5.88;4.47;;;;;;;-0.73;100.00;94332.75;2130884;27;20046;-73
2022/11/11 02:02:53;;;;;;;5.32;3.90;;;;;;;-0.70;100.00;94340.78;2130527;27;20156;-73
2022/11/11 02:06:40;;;;;;;6.38;3.67;;;;;;;-0.70;100.00;94334.72;2128284;27;20042;-73
2022/11/11 02:07:41;;;;;;;13.18;5.50;;;;;;;-0.66;100.00;94338.28;2129971;27;20085;-73
2022/11/11 02:08:43;;;;;;;8.20;3.97;;;;;;;-0.68;100.00;94337.81;2130949;27;20030;-73
2022/11/11 02:09:47;;;;;;;11.98;4.18;;;;;;;-0.74;100.00;94339.84;2121351;27;20027;-73
2022/11/11 02:10:48;;;;;;;5.65;4.50;;;;;;;-0.78;100.00;94342.34;2121543;27;20030;-73
2022/11/11 02:16:30;;;;;;;;;;;;;;;-0.61;100.00;94346.00;2146756;27;20538;-74
2022/11/11 02:17:31;;;;;;;7.90;3.88;;;;;;;-0.64;100.00;94336.13;2132927;27;20284;-74
2022/11/11 02:18:33;;;;;;;8.23;3.97;;;;;;;-0.69;100.00;94342.31;2132958;27;20400;-75
2022/11/11 02:19:48;;;;;;;8.13;3.85;;;;;;;-0.77;100.00;94350.97;2142508;27;20026;-74
2022/11/11 02:20:49;;;;;;;10.35;3.85;;;;;;;-0.82;100.00;94340.66;2142196;27;20026;-73
2022/11/11 02:21:58;;;;;;;7.88;4.00;;;;;;;-0.80;100.00;94338.47;2142492;27;20058;-72
2022/11/11 02:23:05;;;;;;;7.68;4.80;;;;;;;-0.78;100.00;94341.56;2138948;27;20033;-74
2022/11/11 02:24:15;;;;;;;8.43;4.30;;;;;;;-0.73;100.00;94338.78;2140030;27;20027;-73
2022/11/11 02:25:19;;;;;;;10.55;4.13;;;;;;;-0.74;100.00;94339.09;2142661;27;20422;-73
2022/11/11 02:26:21;;;;;;;11.55;3.63;;;;;;;-0.72;100.00;94340.31;2142111;27;20041;-75
2022/11/11 02:27:24;;;;;;;9.43;4.03;;;;;;;-0.70;100.00;94332.91;2133036;27;20018;-73
2022/11/11 02:28:26;;;;;;;13.98;4.40;;;;;;;-0.71;100.00;94328.72;2112655;27;20457;-73
2022/11/11 02:29:29;;;;;;;13.32;4.10;;;;;;;-0.78;100.00;94339.72;2133999;27;20121;-75
2022/11/11 02:30:30;;;;;;;10.27;4.05;;;;;;;-0.73;100.00;94332.75;2142138;27;20029;-73
2022/11/11 02:31:32;;;;;;;8.13;4.20;;;;;;;-0.76;100.00;94331.50;2142298;27;20030;-74
2022/11/11 02:32:33;;;;;;;9.50;4.22;;;;;;;-0.74;100.00;94331.97;2142280;27;20034;-74
2022/11/11 02:33:34;;;;;;;9.07;3.95;;;;;;;-0.72;100.00;94336.91;2143802;27;20091;-73
2022/11/11 02:34:35;;;;;;;6.30;3.85;;;;;;;-0.69;100.00;94334.44;2140052;27;20101;-74
2022/11/11 02:35:42;;;;;;;7.75;3.58;;;;;;;-0.73;100.00;94335.38;2142108;27;20022;-73
2022/11/11 02:36:44;;;;;;;6.80;3.90;;;;;;;-0.73;100.00;94335.38;2141739;27;20036;-73
2022/11/11 02:37:48;;;;;;;8.55;4.20;;;;;;;-0.69;100.00;94331.03;2142171;27;20113;-73
2022/11/11 02:38:49;;;;;;;8.50;3.90;;;;;;;-0.69;100.00;94334.44;2142176;27;20033;-73
2022/11/11 02:39:55;;;;;;;7.55;4.00;;;;;;;-0.73;100.00;94341.41;2141682;27;20089;-73
2022/11/11 02:42:18;;;;;;;8.48;3.80;;;;;;;-0.80;100.00;94331.38;2142241;27;20019;-73
2022/11/11 02:43:19;;;;;;;8.95;4.03;;;;;;;-0.77;100.00;94332.59;2142105;27;20113;-73
2022/11/11 02:44:20;;;;;;;17.88;3.50;;;;;;;-0.77;100.00;94330.75;2132859;27;20027;-73
2022/11/11 02:45:21;;;;;;;14.35;3.30;;;;;;;-0.75;100.00;94327.78;2135411;27;20022;-73
2022/11/11 02:46:22;;;;;;;10.43;3.78;;;;;;;-0.72;100.00;94327.19;2141776;27;20022;-73
2022/11/11 02:47:23;;;;;;;6.88;3.83;;;;;;;-0.74;100.00;94333.84;2137723;27;20077;-73
2022/11/11 02:48:25;;;;;;;6.45;3.17;;;;;;;-0.72;100.00;94329.03;2137716;27;20030;-73
2022/11/11 02:49:26;;;;;;;7.45;3.28;;;;;;;-0.81;100.00;94336.94;2142162;27;20078;-73
2022/11/11 02:50:27;;;;;;;5.90;3.60;;;;;;;-0.85;100.00;94343.88;2135897;27;20096;-72
2022/11/11 02:51:28;;;;;;;7.15;3.30;;;;;;;-0.78;100.00;94337.09;2142004;27;20038;-73
2022/11/11 02:52:29;;;;;;;7.97;3.30;;;;;;;-0.74;100.00;94345.09;2132736;27;20031;-73
2022/11/11 02:53:30;;;;;;;6.82;3.55;;;;;;;-0.78;100.00;94352.06;2133075;27;20031;-74
2022/11/11 02:54:31;;;;;;;6.55;3.17;;;;;;;-0.79;100.00;94342.63;2142125;27;20022;-73
2022/11/11 02:55:32;;;;;;;7.88;3.20;;;;;;;-0.76;100.00;94344.63;2141478;27;20022;-73
2022/11/11 02:57:52;;;;;;;4.82;2.83;;;;;;;-0.72;100.00;94350.81;2142094;27;20461;-73
2022/11/11 02:58:53;;;;;;;5.25;2.60;;;;;;;-0.72;100.00;94345.56;2141928;27;20083;-73
2022/11/11 02:59:57;;;;;;;5.57;3.03;;;;;;;-0.69;100.00;94352.03;2137847;27;20026;-73
2022/11/11 03:00:58;;;;;;;5.95;3.25;;;;;;;-0.79;100.00;94353.13;2137979;27;20018;-74
2022/11/11 03:01:59;;;;;;;7.88;2.95;;;;;;;-0.80;100.00;94354.22;2142385;27;20448;-73
2022/11/11 03:03:00;;;;;;;10.50;2.92;;;;;;;-0.81;100.00;94352.69;2142456;27;20029;-74
2022/11/11 03:04:02;;;;;;;7.07;2.88;;;;;;;-0.76;100.00;94345.41;2142230;27;20746;-75
2022/11/11 03:05:03;;;;;;;6.15;3.15;;;;;;;-0.76;100.00;94355.13;2142192;27;20086;-73
2022/11/11 03:06:04;;;;;;;6.43;2.88;;;;;;;-0.83;100.00;94349.63;2128117;27;20023;-74
2022/11/11 03:07:05;;;;;;;8.25;2.72;;;;;;;-0.80;100.00;94352.34;2132721;27;20019;-73
2022/11/11 03:08:06;;;;;;;5.88;2.70;;;;;;;-0.78;100.00;94350.22;2141974;27;20030;-73
2022/11/11 03:09:07;;;;;;;5.80;2.28;;;;;;;-0.81;100.00;94353.44;2141829;27;20026;-73
2022/11/11 03:10:08;;;;;;;5.38;2.67;;;;;;;-0.83;100.00;94355.63;2142114;27;20018;-73
2022/11/11 03:11:09;;;;;;;8.80;2.75;;;;;;;-0.80;100.00;94354.22;2138874;27;20023;-74
2022/11/11 03:12:10;;;;;;;9.00;2.83;;;;;;;-0.74;100.00;94363.47;2142091;27;20041;-75
2022/11/11 03:13:11;;;;;;;3.35;2.33;;;;;;;-0.73;100.00;94356.38;2141896;27;20029;-74
2022/11/11 03:14:12;;;;;;;4.93;2.50;;;;;;;-0.73;100.00;94356.38;2141889;27;20027;-74
2022/11/11 03:15:13;;;;;;;4.50;2.30;;;;;;;-0.70;100.00;94355.72;2141840;27;20034;-75
2022/11/11 03:17:38;;;;;;;5.22;2.80;;;;;;;-0.70;100.00;94350.47;2140502;27;20050;-74
2022/11/11 03:17:38;;;;;;;5.13;2.55;;;;;;;-0.69;100.00;94349.41;2136371;27;20049;-74
2022/11/11 03:18:39;;;;;;;4.43;2.97;;;;;;;-0.70;100.00;94360.97;2141877;27;20037;-75
2022/11/11 03:19:40;;;;;;;7.28;2.97;;;;;;;-0.70;100.00;94346.03;2141928;27;20024;-75
2022/11/11 03:22:02;;;;;;;5.03;2.75;;;;;;;-0.69;100.00;94350.19;2131902;27;20364;-74
2022/11/11 03:23:08;;;;;;;6.50;3.50;;;;;;;-0.69;100.00;94354.66;2141952;27;20034;-74
2022/11/11 03:24:09;;;;;;;4.82;3.33;;;;;;;-0.76;100.00;94355.91;2141971;27;20109;-74
2022/11/11 03:26:30;;;;;;;7.07;3.05;;;;;;;-0.76;100.00;94361.16;2138173;27;20022;-74
2022/11/11 03:27:31;;;;;;;6.05;3.60;;;;;;;-0.69;100.00;94354.66;2137192;27;20424;-74
2022/11/11 03:28:32;;;;;;;4.28;3.00;;;;;;;-0.67;100.00;94358.50;2136216;27;20054;-74
2022/11/11 03:29:33;;;;;;;7.72;3.72;;;;;;;-0.66;100.00;94361.91;2136174;27;20059;-74
2022/11/11 03:30:34;;;;;;;4.90;3.42;;;;;;;-0.67;100.00;94348.00;2126579;27;20023;-75
2022/11/11 03:31:36;;;;;;;4.65;3.20;;;;;;;-0.65;100.00;94355.59;2118359;27;20023;-74
2022/11/11 03:32:37;;;;;;;5.68;3.05;;;;;;;-0.67;100.00;94350.63;2119907;27;20082;-73
2022/11/11 03:33:38;;;;;;;3.47;3.17;;;;;;;-0.64;100.00;94354.50;2136075;27;20441;-74
2022/11/11 03:34:39;;;;;;;3.75;2.80;;;;;;;-0.64;100.00;94355.25;2135197;27;20038;-75
2022/11/11 03:35:41;;;;;;;4.22;3.20;;;;;;;-0.62;100.00;94360.97;2135206;27;20092;-75
2022/11/11 03:38:23;;;;;;;3.30;3.00;;;;;;;-0.64;100.00;94362.38;2132888;27;20034;-73
2022/11/11 03:39:25;;;;;;;4.70;3.08;;;;;;;-0.66;100.00;94360.06;2131703;27;20026;-72
2022/11/11 03:40:26;;;;;;;2.88;2.65;;;;;;;-0.64;100.00;94362.38;2132113;27;20030;-73
2022/11/11 03:41:27;;;;;;;3.53;3.00;;;;;;;-0.67;100.00;94363.00;2135687;27;20062;-73
2022/11/11 03:42:28;;;;;;;3.47;2.95;;;;;;;-0.62;100.00;94360.97;2134575;27;20029;-73
2022/11/11 03:43:31;;;;;;;3.10;2.78;;;;;;;-0.63;100.00;94363.91;2135953;27;20079;-73
2022/11/11 03:44:32;;;;;;;3.50;2.80;;;;;;;-0.67;100.00;94371.63;2136008;27;20050;-73
2022/11/11 03:45:33;;;;;;;3.28;2.60;;;;;;;-0.69;100.00;94360.69;2136077;27;20141;-72
2022/11/11 03:46:34;;;;;;;6.50;2.85;;;;;;;-0.72;100.00;94363.94;2135294;27;20467;-72
2022/11/11 03:47:35;;;;;;;3.47;3.10;;;;;;;-0.79;100.00;94368.88;2130711;27;20035;-73
2022/11/11 03:48:36;;;;;;;4.28;3.15;;;;;;;-0.80;100.00;94364.72;2133423;27;20057;-73
2022/11/11 03:49:37;;;;;;;2.88;2.67;;;;;;;-0.82;100.00;94367.66;2135917;27;20026;-73
2022/11/11 03:50:38;;;;;;;3.60;2.70;;;;;;;-0.78;100.00;94373.84;2136140;27;20022;-73
2022/11/11 03:51:39;;;;;;;4.03;2.67;;;;;;;-0.77;100.00;94366.72;2135690;27;20861;-73
2022/11/11 03:52:44;;;;;;;3.30;2.45;;;;;;;-0.77;100.00;94364.09;2135808;27;20030;-73
2022/11/11 03:53:45;;;;;;;3.40;3.10;;;;;;;-0.80;100.00;94365.47;2135889;27;20034;-73
2022/11/11 03:54:46;;;;;;;2.72;2.53;;;;;;;-0.79;100.00;94367.03;2135837;27;20038;-73
2022/11/11 03:55:48;;;;;;;3.55;2.88;;;;;;;-0.80;100.00;94373.34;2135758;27;20031;-73
2022/11/11 03:56:49;;;;;;;2.97;2.45;;;;;;;-0.78;100.00;94370.44;2135512;27;20027;-73
2022/11/11 03:57:51;;;;;;;3.95;2.58;;;;;;;-0.69;100.00;94373.03;2135917;27;20023;-73
2022/11/11 03:58:51;;;;;;;3.60;3.25;;;;;;;-0.83;100.00;94375.88;2134832;27;20030;-72
2022/11/11 03:59:52;;;;;;;3.15;2.40;;;;;;;-0.77;100.00;94369.34;2135831;27;20065;-73
2022/11/11 04:00:54;;;;;;;3.13;2.60;;;;;;;-0.82;100.00;94367.66;2126546;27;20031;-73
2022/11/11 04:11:37;;;;;;;5.18;3.22;;;;;;;-0.86;100.00;94371.22;2135711;27;20042;-73
2022/11/11 04:16:42;;;;;;;6.03;3.08;;;;;;;-0.95;100.00;94359.97;2116454;27;20110;-73
2022/11/11 04:17:43;;;;;;;5.22;2.80;;;;;;;-0.90;100.00;94355.31;2116820;27;20363;-72
2022/11/11 04:22:57;;;;;;;3.72;2.60;;;;;;;-0.89;100.00;94356.09;2079970;28;20653;-73
2022/11/11 04:23:58;;;;;;;5.35;2.45;;;;;;;-0.89;100.00;94350.84;2107037;27;20038;-74
2022/11/11 04:26:18;;;;;;;3.88;2.50;;;;;;;-0.90;100.00;94334.34;2117540;27;20457;-74
2022/11/11 04:27:20;;;;;;;6.30;2.80;;;;;;;-0.87;100.00;94349.47;2114968;27;20035;-73
2022/11/11 04:29:41;;;;;;;4.65;2.88;;;;;;;-0.87;100.00;94344.22;2114029;27;20080;-73
2022/11/11 04:30:42;;;;;;;3.65;2.90;;;;;;;-0.85;100.00;94344.66;2119243;27;20030;-74
2022/11/11 04:33:03;;;;;;;4.95;2.80;;;;;;;-0.90;100.00;94344.06;2115362;27;20043;-74
2022/11/11 04:34:04;;;;;;;3.17;2.72;;;;;;;-0.90;100.00;94349.31;2118516;27;20035;-74
2022/11/11 04:35:08;;;;;;;4.60;2.72;;;;;;;-0.87;100.00;94340.81;2118418;27;20510;-74
2022/11/11 04:36:08;;;;;;;4.30;3.47;;;;;;;-0.84;100.00;94333.06;2118085;27;20034;-74
2022/11/11 04:37:10;;;;;;;4.35;3.28;;;;;;;-0.81;100.00;94342.94;2118332;27;20058;-73
2022/11/11 04:41:04;;;;;;;3.63;2.88;;;;;;;-0.92;100.00;94335.72;2117828;27;20505;-73
2022/11/11 04:42:05;;;;;;;4.55;2.88;;;;;;;-0.96;100.00;94338.22;2118561;27;20113;-74
2022/11/11 04:43:06;;;;;;;6.50;2.83;;;;;;;-0.95;100.00;94323.25;2118343;27;20054;-73
2022/11/11 04:45:26;;;;;;;3.75;3.03;;;;;;;-0.91;100.00;94322.31;2117416;27;20037;-73
2022/11/11 04:46:27;;;;;;;9.90;3.25;;;;;;;-0.91;100.00;94321.53;2118125;27;20087;-73
2022/11/11 04:47:28;;;;;;;3.67;2.90;;;;;;;-1.02;100.00;94321.09;2114369;27;20707;-73
2022/11/11 04:48:29;;;;;;;5.63;3.10;;;;;;;-1.01;100.00;94322.63;2122032;27;20706;-74
2022/11/11 04:49:30;;;;;;;3.97;2.83;;;;;;;-1.04;100.00;94331.91;2117606;27;20027;-74
2022/11/11 04:50:33;;;;;;;4.88;3.10;;;;;;;-1.03;100.00;94330.81;2116045;27;20023;-72
2022/11/11 04:52:54;;;;;;;3.53;2.63;;;;;;;-0.94;100.00;94332.66;2117695;27;20389;-74
2022/11/11 04:53:54;;;;;;;5.75;3.03;;;;;;;-0.95;100.00;94333.75;2114278;27;20034;-72
2022/11/11 04:57:44;;;;;;;8.80;3.13;;;;;;;-0.96;100.00;94337.44;2115834;27;20027;-73
2022/11/11 04:58:45;;;;;;;3.42;2.67;;;;;;;-0.92;100.00;94343.59;2121390;27;20054;-72
2022/11/11 04:59:46;;;;;;;3.22;2.67;;;;;;;-0.99;100.00;94338.06;2118398;27;20050;-72
2022/11/11 05:00:47;;;;;;;4.97;2.97;;;;;;;-0.96;100.00;94346.09;2115070;27;20027;-74
2022/11/11 05:03:22;;;;;;;3.40;2.70;;;;;;;-0.94;100.00;94343.91;2118323;27;20060;-72
2022/11/11 05:04:23;;;;;;;5.53;3.13;;;;;;;-0.94;100.00;94349.16;2121687;27;21050;-73
2022/11/11 05:05:25;;;;;;;5.22;3.17;;;;;;;-1.06;100.00;94351.66;2117723;27;20023;-72
2022/11/11 05:09:04;;;;;;;6.22;3.17;;;;;;;-0.97;100.00;94356.88;2109135;28;20445;-73
2022/11/11 05:10:06;;;;;;;4.95;3.33;;;;;;;-1.13;100.00;94360.00;2118368;27;20031;-73
2022/11/11 05:11:07;;;;;;;5.15;3.10;;;;;;;-1.05;100.00;94358.47;2117449;27;20525;-73
2022/11/11 05:12:08;;;;;;;6.15;3.25;;;;;;;-1.03;100.00;94359.66;2115313;27;20034;-72
2022/11/11 05:21:33;;;;;;;4.83;3.00;;;;;;;-1.00;100.00;94368.03;2123728;27;20065;-72
2022/11/11 05:22:43;;;;;;;3.28;2.95;;;;;;;-1.03;100.00;94361.53;2126110;27;20444;-72
2022/11/11 05:26:24;;;;;;;5.22;3.13;;;;;;;-1.02;100.00;94368.31;2135754;27;20022;-74
2022/11/11 05:27:26;;;;;;;4.45;3.20;;;;;;;-1.03;100.00;94370.16;2127954;27;20015;-72
2022/11/11 05:28:27;;;;;;;6.43;3.75;;;;;;;-1.04;100.00;94379.13;2131927;27;20037;-75
2022/11/11 05:29:28;;;;;;;7.63;3.17;;;;;;;-1.13;100.00;94372.34;2126772;27;20041;-73
2022/11/11 05:30:29;;;;;;;10.75;3.92;;;;;;;-1.08;100.00;94374.81;2130922;27;20073;-73
2022/11/11 05:31:30;;;;;;;5.82;3.60;;;;;;;-1.05;100.00;94380.22;2132381;27;20035;-73
2022/11/11 05:32:31;;;;;;;5.43;3.50;;;;;;;-1.04;100.00;94383.59;2131621;27;20030;-72
2022/11/11 05:33:32;;;;;;;4.93;3.63;;;;;;;-1.14;100.00;94384.69;2132221;27;20019;-72
2022/11/11 05:34:33;;;;;;;6.85;3.83;;;;;;;-1.22;100.00;94392.56;2132458;27;20022;-72
2022/11/11 05:35:35;;;;;;;6.68;3.50;;;;;;;-1.17;100.00;94387.94;2132454;27;20642;-71
2022/11/11 05:36:36;;;;;;;7.03;3.20;;;;;;;-1.11;100.00;94391.94;2130763;27;20035;-71
2022/11/11 05:37:37;;;;;;;5.57;3.53;;;;;;;-1.10;100.00;94395.31;2131527;27;20044;-71
2022/11/11 05:38:38;;;;;;;5.30;3.65;;;;;;;-1.13;100.00;94399.34;2131956;27;20026;-71
2022/11/11 05:39:39;;;;;;;11.23;3.75;;;;;;;-1.18;100.00;94404.75;2132324;27;20041;-71
2022/11/11 05:40:40;;;;;;;5.57;3.55;;;;;;;-1.14;100.00;94407.50;2132435;27;20049;-71
2022/11/11 05:41:41;;;;;;;4.22;3.50;;;;;;;-1.14;100.00;94405.69;2134220;27;20725;-71
2022/11/11 05:42:44;;;;;;;9.13;3.45;;;;;;;-1.12;100.00;94408.75;2128273;27;20031;-71
2022/11/11 05:43:45;;;;;;;4.68;3.78;;;;;;;-1.14;100.00;94418.81;2132221;27;20064;-71
2022/11/11 05:44:46;;;;;;;4.78;3.25;;;;;;;-1.06;100.00;94414.63;2133161;27;20479;-71
2022/11/11 05:45:46;;;;;;;6.45;3.83;;;;;;;-1.04;100.00;94423.72;2133059;27;20018;-71
2022/11/11 05:46:47;;;;;;;6.53;3.90;;;;;;;-1.04;100.00;94417.72;2129339;27;20069;-72
2022/11/11 05:47:48;;;;;;;5.75;3.53;;;;;;;-1.03;100.00;94422.66;2129400;27;20026;-72
2022/11/11 05:50:09;;;;;;;5.28;3.50;;;;;;;-0.98;100.00;94421.72;2130673;27;20054;-71
2022/11/11 05:51:26;;;;;;;9.80;4.03;;;;;;;-0.94;100.00;94427.88;2132483;27;20589;-71
2022/11/11 05:52:27;;;;;;;4.95;3.40;;;;;;;-0.88;100.00;94421.41;2129253;27;20069;-71
2022/11/11 05:53:28;;;;;;;6.50;3.30;;;;;;;-0.96;100.00;94426.66;2132411;27;20041;-71
2022/11/11 05:54:29;;;;;;;8.60;3.83;;;;;;;-0.99;100.00;94433.28;2132337;27;20028;-71
2022/11/11 05:55:30;;;;;;;4.72;3.63;;;;;;;-0.93;100.00;94431.28;2132571;27;20031;-71
2022/11/11 05:56:31;;;;;;;4.88;3.20;;;;;;;-0.70;100.00;94424.78;2132448;27;20023;-73
2022/11/11 05:57:32;;;;;;;6.53;3.35;;;;;;;-0.77;100.00;94432.34;2132597;27;20022;-73
2022/11/11 05:58:33;;;;;;;7.35;3.40;;;;;;;-0.78;100.00;94434.22;2122396;27;20023;-71
2022/11/11 05:59:35;;;;;;;4.75;3.70;;;;;;;-0.76;100.00;94428.63;2123505;27;20038;-71
2022/11/11 06:00:36;;;;;;;6.13;3.38;;;;;;;-0.80;100.00;94430.34;2132170;27;20130;-71
2022/11/11 06:01:38;;;;;;;4.95;3.33;;;;;;;-0.82;100.00;94435.13;2132560;27;20027;-72
2022/11/11 06:02:39;;;;;;;7.93;3.40;;;;;;;-0.83;100.00;94433.59;2132816;27;20026;-71
2022/11/11 06:03:40;;;;;;;6.63;3.28;;;;;;;-0.78;100.00;94431.59;2131768;27;20117;-71
2022/11/11 06:04:41;;;;;;;4.20;3.50;;;;;;;-0.80;100.00;94433.72;2130325;27;20026;-72
2022/11/11 06:05:42;;;;;;;6.32;3.60;;;;;;;-0.78;100.00;94438.69;2132779;27;20041;-71
2022/11/11 06:06:43;;;;;;;4.60;3.42;;;;;;;-0.67;100.00;94434.63;2130411;27;20445;-71